Scroll down
FLIGHT INFORMATION
Virgin Atlantic Airways

VIR326

At Arrival Gate

KLAS
 EGKK
DATE: 2021-03-26
GATE: E3
GATE DEPARTURE: 01:53
TAKEOFF: 02:07
DATE: 2021-03-26
GATE:  -
LANDING: 11:59
GATE ARRIVAL: 12:03
FLIGHT DATA
Crew: 
Speed: 
932 kph
Altitude: 
37,055 ft
Stage Length: 
8,432.7 km
Block Time: 
10 hrs
Flight Time: 
9.9 hrs
Fuel Used: 
91,467 kg
Cleared Route: KLAS LEELN TOMIS BATIS MEDOE STAAV TRALR NICLE SUNYY VERKN LARVE EKR KD66U KP84A ABR YQT YMO JOVIE HOIST 5650N 5640N 5530N 5420N MALOT GISTI NORLA MERLY DIDEL FONZU ELRIP OTMET SOKDU NEDUL ELDER TELTU HOLLY WILLO EGKK
TRACK DATA
50,000 ft 1,000 kts
AIRCRAFT INFO AND CUMULATIVE STATS
Aircraft Type: 
B744
Registration: 
SELCAL: 
PSLR
MSN/LN: 
29406 / 1177
Total Flights: 
2
Total Block Time: 
20.2 hrs
Total Flight Time: 
19.8 hrs
Total Fuel Used: 
190,916 kg
DATALINK LOG | Newest first | Current as of: 2022-10-05 21:14:35
LABEL SEQUENCE CONTENT Dn/Up
QD345412:03 25.1▼ Dn
QC305011:59▼ Dn
GA0032GATE PENDING▲ Up
GR0021EGKK 11:57 MAAS 00 YP/UM 00/00 WCHR/S/C 00/00/00 HI-VAL NO DIPL/VIP NO▼ Dn
2U2640EGKK 162020Z 36012KT 9999 SCT040 08/02 Q1030▲ Up
GA5728GATE PENDING▲ Up
GR5718EGKK 11:51 MAAS 00 YP/UM 00/00 WCHR/S/C 00/00/00 HI-VAL NO▼ Dn
2S5718EGKK▼ Dn
QB390702:07▼ Dn
QA245401:53 227▼ Dn
2U3819KLAS 161056Z 23003KT 10SM FEW040 OVC050 04/M02 A2977 RMK AO2 SLP076 T00441017▲ Up
2S0939KLAS▼ Dn
A30848CLEARED TO EGKK VIA STAAV8 VERKN LARVE EKR KD66U KP84A ABR YQT YMO JOVIE HOIST 56N050W 56N040W 55N030W 54N020W MALOT GISTI NORLA M140 MERLY L149 DIDEL N513 FONZU N513 ELRIP N17 OTMET OTME1G. SQUAWK 4734.▲ Up
Q00737[LINK ACK]▲ Up
Q00737[LINK TEST]▼ Dn


AIRCRAFT HISTORY
FLIGHT DATE FLIGHT NO. ORIGIN DESTINATION CLEARED ROUTE BLOCK TIME FLIGHT TIME FUEL USED PILOT
2021-03-26VIR326KLAS EGKK KLAS LEELN TOMIS BATIS MEDOE STAAV TRALR NICLE SUNYY VERKN LARVE EKR KD66U KP84A ABR YQT YMO JOVIE HOIST 5650N 5640N 5530N 5420N MALOT GISTI NORLA MERLY DIDEL FONZU ELRIP OTMET SOKDU NEDUL ELDER TELTU HOLLY WILLO EGKK10 hrs9.9 hrs201,649 lbTom Landry
2021-03-23VIR323EGCC KLAS EGCC D254H D254M D254P EKLAD ASMIM WAL PENIL BABRA GIGTO UNDUX SOPAX RAMOX OGTUG BAGSO DOGAL 5520N 5630N 5740N 5650N JANJO YMT YLD RZN HON BFF LAR BCE KLAS10.1 hrs9.9 hrs219,250 lbTom Landry